الصفحة الرئيسية
METAR-TAF:

METAR-TAF

مطار :

روتا, إسبانيا

دائرة عرض: 36-39N, خط طول: 006-21W, ارتفاع: 26 متر

مراقبة الطقس الحالي

تاريخ ووقت الإصدار 27 دقيقة قبل الساعة 08:00UTC
ريح 3 عقدة من الجنوب الشرقي, الاتجاه يتراوح بين الشمال الشرقي و الجنوب/الجنوب الغربي
درجة الحرارة 25°درجة مئوية
الرطوبة 69%
ضغط 1019 hPa
الرؤية 10 كم أو أكثر
الغيوم لا تقل 1500 م ولا وجود لمزنة ركامية السحاب الأسود

METAR: LERT 040800Z 13003KT 050V200 CAVOK 25/19 Q1019 NOSIG

زمن: 10:27 (08:27 UTC)

توقعات

تاريخ ووقت الإصدار 3ساعات و 27 دقيقة قبل الساعة 05:00UTC
التوقعات صالحة من04 الساعة 06 UTC إلى 04 الساعة 15 UTC
ريح 5 عقدة من الجنوب الشرقي
الرؤية 10 كم أو أكثر
الغيوم لا تقل 1500 م ولا وجود لمزنة ركامية السحاب الأسود
أصبح
من 04 الساعة 10 UTC إلى 04 الساعة 12 UTC
ريح 10 عقدة من الغرب

TAF: LERT 040500Z 0406/0415 14005KT CAVOK BECMG 0410/0412 28010KT

أرصاد الطقس والتوقعات من أكثر من 4000 مطار (تقارير الطقس للمطار METAR والتنبؤ بالطقس بالمطارTAF).

المحطات المتاحة هي النقط الصفراء والحمراء على الخريطة.

حرك المؤشر فوق النقطة لمعرفة اسم المحطة.

ثم انقر لمعرفة أرصاد وتوقعات الطقس.

لتغيير الخارطة: اضغط على الأزرار الخضراء مع رمز الصليب الأسود للتكبير. على الزر الأخضر مع شرطة للتصغير، أو على الأسهم الخضراء للخرائط المجاورة.


METAR-TAF: